Ormsby, MN (56162)

08:38 AM CDT del 01 Settembre 2014 (GMT -0500)
NuWay Coop - Trimont | Change Station
CLOSE
Current Station
Stazione meteo personale
Location: Trimont, MN
Altitudine: 1220 ft
Stazioni meteo nelle vicinanze

Alt. 1220 ft 43.76 °N, 94.72 °W | Updated 1 minute ago

Parzialmente nuvoloso
Parzialmente nuvoloso
64.5 °F
Sembra 64.5 °F
N
3.0
Vento Variabile Vento da ONO
Gusts 10.0 mph

Oggi
Massima -- | Minima -- °F
--% Possibilità di precip.
Ieri
Massima -- | Minima -- °F
Precip. -- in
6:42 AM 7:54 PM
Luna crescente, 41% visible
Pressione 29.71 in
Visibilità 10.0 miglia
Nuvole Molto nuvoloso 500 ft
Punto di rugiada 63 °F
Umidità 94%
Piovosità 0.00 in
Spessore del manto nevoso Non disponibile.
Raggi UV 1 fuori da 12
Polline 6.30 fuori da 12
Qualità dell'aria Non disponibile.
Flu Activity Non disponibile.
METAR KJYG 011314Z AUTO 27006KT 10SM BKN005 19/17 A2971 RMK AO2 LTG DSNT E

More Conditions Fewer Conditions

Pressione 29.71 in
Visibilità 10.0 miglia
Nuvole Molto nuvoloso 500 ft
Punto di rugiada 63 °F
Umidità 94%
Piovosità 0.00 in
Spessore del manto nevoso Non disponibile.
Raggi UV 1 fuori da 12
Polline 6.30 fuori da 12
Qualità dell'aria Non disponibile.
Flu Activity Non disponibile.
METAR KJYG 011314Z AUTO 27006KT 10SM BKN005 19/17 A2971 RMK AO2 LTG DSNT E

More Conditions Fewer Conditions

10-Day Weather Forecast

Almanac

Astronomia

Sep. 01, 2014 Alba Tramonto
Ora attuale 06:42 CDT 19:54 CDT
Crepuscolo civile 06:12 CDT 20:24 CDT
Crepuscolo nautico 05:36 CDT 20:59 CDT
Crepuscolo astronomico 04:59 CDT 21:36 CDT
Luna 13:42 CDT 23:42 CDT
Estensione della luce visibile 14h 11m
Lunghezza del giorno
13h 12m
Tomorrow will be 2m 54s shorter.
Luna crescente, 41% of the Moon is Illuminated
Oggi
Luna crescente
Set 2
Primo quarto
Set 8
Luna piena
Set 15
Ultimo quarto
Set 24
Nuovo

Gli estremi di oggi

State Highs State Lows

Community

WunderPhotos

Upload Photos

1,749,217 foto caricate!

Nearby

Profondità neve

Stazione Profondità Altitudine
Non sono state evidenziate nuove nevicate

Attività sismica

Città  Distanza Mag. Data & Ora
Non sono state riportate attività sismiche nelle vicinanze.
Minimo Magnitudo Mostrato è 2.5.

Temperature delle acque costiere

Località Temperatura
Nessun dato dalle stazioni

Stazioni meteo nelle vicinanze